Data for 08/24/2010

Time Sea-Level Adjusted Pressure Absolute Pressure Temperature Relative Humidity Dew Point   
(mb) (inHg) (mb) (inHg) (C) (F) (%) (C) (F)
00:05 1029 30.39 858 25.34 9.2 48.6 61 2.1 35.7
00:10 1029 30.39 858 25.34 9 48.2 63 2.5 36.4
00:15 1029 30.39 858 25.34 8.7 47.6 64 2.2 35.9
00:20 1029 30.39 858 25.34 8.8 47.9 61 1.7 35
00:25 1029 30.39 858 25.34 9.1 48.4 61 1.9 35.4
00:30 1029 30.39 858 25.34 9.2 48.5 59 1.7 35
00:35 1029 30.39 858 25.34 9.3 48.7 58 1.6 34.8
00:40 1029 30.39 858 25.34 9.2 48.6 58 1.4 34.6
00:45 1029 30.39 858 25.34 9.3 48.7 59 1.6 34.9
00:50 1029 30.39 858 25.34 9.3 48.8 59 1.7 35.1
00:55 1029 30.39 858 25.34 9.2 48.6 58 1.3 34.4
01:00 1029 30.39 858 25.34 9.3 48.7 58 1.5 34.8
01:05 1029 30.39 858 25.34 9.1 48.4 60 1.7 35.1
01:10 1029 30.39 858 25.34 8.7 47.7 60 1.4 34.6
01:15 1029 30.39 859 25.37 8.8 47.9 60 1.6 34.8
01:20 1029 30.39 858 25.34 8.7 47.7 60 1.4 34.6
01:25 1029 30.39 858 25.34 8.9 47.9 59 1.2 34.2
01:30 1029 30.39 858 25.34 9 48.1 58 1.3 34.3
01:35 1029 30.39 858 25.34 9 48.2 58 1.2 34.1
01:40 1029 30.39 858 25.34 9.1 48.4 57 1.1 34
01:45 1029 30.39 858 25.34 9.2 48.5 57 1.1 34
01:50 1029 30.39 858 25.34 9.2 48.5 57 1.1 34
01:55 1029 30.39 858 25.34 9.1 48.4 57 1.1 33.9
02:00 1029 30.39 858 25.34 9.3 48.7 57 1.3 34.3
02:05 1029 30.39 858 25.34 9.1 48.3 58 1.3 34.3
02:10 1029 30.39 858 25.34 8.9 48.1 58 1.2 34.2
02:15 1029 30.39 858 25.34 9 48.1 58 1.2 34.1
02:20 1029 30.39 858 25.34 8.7 47.7 59 1.2 34.1
02:25 1029 30.39 858 25.34 8.5 47.3 60 1.1 34
02:30 1029 30.39 858 25.34 8.5 47.3 60 1.3 34.3
02:35 1029 30.39 858 25.34 8.3 47 59 0.9 33.6
02:40 1029 30.39 858 25.34 8.5 47.3 59 1.1 34
02:45 1029 30.39 858 25.34 8.4 47.1 60 1.1 33.9
02:50 1029 30.39 858 25.34 8.2 46.8 62 1.3 34.4
02:55 1029 30.39 858 25.34 8.1 46.5 61 1.1 34
03:00 1029 30.39 859 25.37 7.9 46.2 63 1.2 34.2
03:05 1029 30.39 859 25.37 7.8 46 63 1.1 34.1
03:10 1029 30.39 858 25.34 7.7 45.8 64 1.3 34.3
03:15 1029 30.39 858 25.34 7.6 45.6 64 1.1 34
03:20 1029 30.39 858 25.34 7.8 46 61 0.8 33.5
03:25 1029 30.39 859 25.37 8 46.4 61 0.9 33.6
03:30 1029 30.39 859 25.37 8.1 46.5 60 0.8 33.5
03:35 1029 30.39 859 25.37 8.2 46.8 59 0.8 33.4
03:40 1029 30.39 859 25.37 8.4 47 59 0.8 33.4
03:45 1029 30.39 859 25.37 8.2 46.8 60 1 33.7
03:50 1029 30.39 858 25.34 8.1 46.6 60 0.9 33.7
03:55 1029 30.39 858 25.34 7.9 46.2 62 1.2 34.1
04:00 1029 30.39 858 25.34 7.6 45.6 64 1.3 34.4
04:05 1029 30.39 859 25.37 7.4 45.4 64 1 33.8
04:10 1029 30.39 858 25.34 7.4 45.3 64 1.1 34
04:15 1029 30.39 858 25.34 7.3 45.1 64 0.9 33.7
04:20 1029 30.39 858 25.34 7.3 45.1 62 0.6 33.1
04:25 1029 30.39 858 25.34 7.5 45.5 61 0.6 33
04:30 1029 30.39 858 25.34 7.5 45.5 63 0.8 33.5
04:35 1029 30.39 858 25.34 7.4 45.3 63 0.8 33.5
04:40 1029 30.39 858 25.34 7.3 45.1 64 0.9 33.6
04:45 1029 30.39 858 25.34 7 44.5 65 0.9 33.7
04:50 1029 30.39 858 25.34 6.8 44.3 66 0.9 33.6
04:55 1029 30.39 858 25.34 6.7 44.1 66 0.7 33.3
05:00 1029 30.39 858 25.34 6.8 44.3 64 0.6 33.1
05:05 1029 30.39 858 25.34 7.1 44.7 63 0.5 32.9
05:10 1029 30.39 858 25.34 7.1 44.8 64 0.7 33.3
05:15 1029 30.39 858 25.34 7 44.5 65 0.8 33.4
05:20 1029 30.39 858 25.34 6.8 44.3 65 0.7 33.2
05:25 1029 30.39 858 25.34 6.8 44.2 65 0.7 33.2
05:30 1029 30.39 858 25.34 6.7 44.1 64 0.5 32.8
05:35 1029 30.39 858 25.34 7 44.6 62 0.3 32.6
05:40 1029 30.39 858 25.34 7.1 44.8 63 0.5 33
05:45 1029 30.39 858 25.34 7 44.5 64 0.5 33
05:50 1029 30.39 858 25.34 6.9 44.3 65 0.7 33.2
05:55 1029 30.39 858 25.34 6.6 44 65 0.6 33.1
06:00 1029 30.39 858 25.34 6.8 44.2 64 0.4 32.8
06:05 1029 30.39 858 25.34 6.8 44.3 65 0.6 33.1
06:10 1029 30.39 858 25.34 6.8 44.2 64 0.5 32.8
06:15 1029 30.39 858 25.34 6.8 44.2 65 0.6 33.1
06:20 1029 30.39 858 25.34 6.7 44 65 0.6 33
06:25 1029 30.39 858 25.34 6.7 44 64 0.4 32.7
06:30 1029 30.39 858 25.34 6.9 44.4 63 0.2 32.4
06:35 1029 30.39 858 25.34 7.2 44.9 62 0.4 32.7
06:40 1029 30.39 858 25.34 7.2 45 61 0.2 32.4
06:45 1029 30.39 858 25.34 7.4 45.4 61 0.4 32.7
06:50 1029 30.39 858 25.34 7.4 45.2 61 0.3 32.6
06:55 1029 30.39 859 25.37 7.3 45.1 61 0.3 32.5
07:00 1029 30.39 859 25.37 7.4 45.2 61 0.2 32.4
07:05 1029 30.39 859 25.37 7.4 45.4 61 0.4 32.7
07:10 1029 30.39 859 25.37 7.6 45.8 61 0.6 33
07:15 1029 30.39 858 25.34 7.6 45.7 61 0.5 32.9
07:20 1029 30.39 858 25.34 7.6 45.6 63 1 33.9
07:25 1029 30.39 859 25.37 7.4 45.2 62 0.5 32.9
07:30 1029 30.39 859 25.37 7.7 45.9 60 0.5 32.8
07:35 1029 30.39 859 25.37 8.2 46.7 61 1.1 34
07:40 1029 30.39 859 25.37 8.2 46.8 61 1.1 34
07:45 1029 30.39 859 25.37 8.4 47 60 1.2 34.1
07:50 1029 30.39 859 25.37 8.8 47.8 57 0.8 33.5
07:55 1029 30.39 859 25.37 8.9 47.9 57 0.9 33.7
08:00 1029 30.39 859 25.37 9.1 48.4 57 1.1 33.9
08:05 1029 30.39 859 25.37 9.4 48.9 56 1 33.8
08:10 1029 30.39 859 25.37 9.8 49.6 54 1.1 34
08:15 1029 30.39 859 25.37 10.3 50.5 53 1.3 34.3
08:20 1029 30.39 859 25.37 10.9 51.6 52 1.4 34.5
08:25 1029 30.39 859 25.37 11.3 52.3 50 1.4 34.6
08:30 1030 30.42 859 25.37 11.9 53.4 48 1.4 34.5
08:35 1030 30.42 859 25.37 12.5 54.5 47 1.5 34.7
08:40 1029 30.39 859 25.37 13 55.3 46 1.7 35
08:45 1029 30.39 859 25.37 12.4 54.4 47 1.4 34.5
08:50 1029 30.39 859 25.37 12.6 54.6 47 1.6 34.9
08:55 1029 30.39 859 25.37 13 55.4 44 1.3 34.3
09:00 1030 30.42 859 25.37 13.1 55.7 45 1.5 34.7
09:05 1029 30.39 859 25.37 13.5 56.4 42 1 33.8
09:10 1029 30.39 859 25.37 13.9 57 42 1.3 34.4
09:15 1029 30.39 859 25.37 14 57.2 38 -0.1 31.8
09:20 1029 30.39 859 25.37 14 57.1 40 0.5 33
09:25 1029 30.39 859 25.37 14.6 58.3 38 0.7 33.3
09:30 1029 30.39 859 25.37 14.7 58.5 39 1.1 34
09:35 1029 30.39 858 25.34 15.3 59.5 37 0.7 33.3
09:40 1029 30.39 858 25.34 15.3 59.5 39 1.5 34.8
09:45 1029 30.39 858 25.34 15.3 59.5 39 1.6 34.9
09:50 1029 30.39 858 25.34 14.9 58.8 37 0.4 32.7
09:55 1029 30.39 858 25.34 15.7 60.2 36 0.6 33
10:00 1029 30.39 858 25.34 15.9 60.6 36 1.1 34
10:05 1029 30.39 858 25.34 16.3 61.3 34 0.4 32.7
10:10 1029 30.39 858 25.34 16.5 61.7 37 2 35.5
10:15 1029 30.39 858 25.34 16.5 61.6 34 0.9 33.6
10:20 1029 30.39 858 25.34 16.4 61.5 36 1.4 34.5
10:25 1029 30.39 858 25.34 16.7 62 36 1.5 34.7
10:30 1029 30.39 858 25.34 16.7 62 35 1.3 34.4
10:35 1029 30.39 858 25.34 16.8 62.2 36 1.9 35.4
10:40 1029 30.39 858 25.34 17.1 62.7 37 2.3 36.1
10:45 1029 30.39 858 25.34 16.2 61.2 40 2.8 37.1
10:50 1029 30.39 858 25.34 15.9 60.6 42 3 37.4
10:55 1029 30.39 858 25.34 16.6 61.8 38 2.5 36.5
11:00 1029 30.39 858 25.34 17 62.6 37 2.4 36.3
11:05 1029 30.39 858 25.34 17.3 63.1 37 2.4 36.3
11:10 1029 30.39 858 25.34 16.8 62.3 39 2.7 36.9
11:15 1029 30.39 858 25.34 16.9 62.4 39 3 37.4
11:20 1029 30.39 858 25.34 17.3 63.2 37 2.5 36.5
11:25 1029 30.39 858 25.34 17.6 63.6 37 2.7 36.9
11:30 1029 30.39 858 25.34 18.1 64.6 34 2.2 36
11:35 1029 30.39 858 25.34 18.1 64.5 32 1.4 34.5
11:40 1029 30.39 858 25.34 17.8 64.1 36 2.6 36.7
11:45 1029 30.39 858 25.34 18 64.3 36 2.9 37.3
11:50 1029 30.39 858 25.34 18 64.4 35 2.3 36.1
11:55 1029 30.39 858 25.34 18.5 65.3 32 1.5 34.7
12:00 1028 30.36 858 25.34 18.5 65.3 32 1.5 34.6
12:05 1028 30.36 858 25.34 18.3 64.9 34 2.3 36.2
12:10 1028 30.36 858 25.34 19.3 66.7 31 1.8 35.2
12:15 1028 30.36 858 25.34 20.1 68.1 29 1.6 34.9
12:20 1028 30.36 858 25.34 20.3 68.6 29 2.1 35.7
12:25 1028 30.36 858 25.34 18.6 65.6 31 1.5 34.7
12:30 1028 30.36 857 25.31 18.8 65.8 32 1.8 35.3
12:35 1028 30.36 857 25.31 18.7 65.6 33 2.1 35.8
12:40 1028 30.36 857 25.31 19.5 67.1 29 1.1 33.9
12:45 1028 30.36 857 25.31 19.4 67 31 2.2 36
12:50 1028 30.36 857 25.31 20.4 68.8 29 2 35.6
12:55 1028 30.36 857 25.31 20.3 68.5 29 1.9 35.4
13:00 1028 30.36 857 25.31 20.5 68.9 31 3 37.3
13:05 1028 30.36 857 25.31 19.8 67.6 31 2.2 35.9
13:10 1028 30.36 857 25.31 19.8 67.6 31 2.4 36.3
13:15 1028 30.36 857 25.31 19.7 67.4 31 2.4 36.3
13:20 1028 30.36 857 25.31 21.3 70.3 28 2.3 36.2
13:25 1028 30.36 857 25.31 21.4 70.5 28 2.5 36.6
13:30 1028 30.36 857 25.31 21.3 70.4 29 2.6 36.8
13:35 1028 30.36 857 25.31 21.7 71 26 1.7 35.1
13:40 1027 30.33 857 25.31 20.7 69.3 29 2.2 35.9
13:45 1027 30.33 857 25.31 21.5 70.6 26 1.2 34.1
13:50 1027 30.33 857 25.31 22.1 71.8 27 2.3 36.2
13:55 1027 30.33 857 25.31 21.8 71.3 27 2.1 35.8
14:00 1027 30.33 856 25.28 23.5 74.4 23 1.2 34.2
14:05 1027 30.33 856 25.28 22.5 72.5 26 2.5 36.5
14:10 1027 30.33 856 25.28 21.7 71 27 1.9 35.3
14:15 1027 30.33 856 25.28 21.8 71.2 26 1.4 34.5
14:20 1027 30.33 856 25.28 23 73.4 24 1.4 34.5
14:25 1027 30.33 856 25.28 23.4 74.2 24 1.7 35
14:30 1027 30.33 856 25.28 23.6 74.4 23 1.7 35.1
14:35 1027 30.33 856 25.28 23.8 74.9 24 2.2 36
14:40 1027 30.33 856 25.28 23.6 74.4 24 1.8 35.3
14:45 1027 30.33 856 25.28 23.5 74.3 22 1 33.8
14:50 1027 30.33 856 25.28 23.4 74.1 23 1.3 34.3
14:55 1027 30.33 856 25.28 23.5 74.3 21 0.3 32.5
15:00 1027 30.33 856 25.28 24 75.2 20 0.1 32.2
15:05 1027 30.33 856 25.28 24.1 75.3 20 -0.1 31.8
15:10 1027 30.33 856 25.28 24 75.3 20 0.2 32.3
15:15 1027 30.33 856 25.28 23.8 74.9 21 0.2 32.3
15:20 1027 30.33 856 25.28 23.8 74.9 20 -0.4 31.3
15:25 1027 30.33 856 25.28 24.1 75.3 20 0 32.1
15:30 1026 30.3 856 25.28 24.1 75.4 20 -0.3 31.4
15:35 1026 30.3 856 25.28 23.9 75.1 20 -0 32
15:40 1026 30.3 856 25.28 23.5 74.2 20 -0.4 31.3
15:45 1026 30.3 856 25.28 24.6 76.3 18 -0.9 30.4
15:50 1026 30.3 856 25.28 24.9 76.7 18 -1 30.2
15:55 1026 30.3 856 25.28 24.5 76.1 18 -1 30.2
16:00 1026 30.3 855 25.25 24.8 76.6 19 -0.5 31.2
16:05 1026 30.3 855 25.25 25.1 77.1 18 -0.5 31
16:10 1026 30.3 855 25.25 25.4 77.6 18 -0.5 31.1
16:15 1026 30.3 855 25.25 24.9 76.7 19 -0.2 31.7
16:20 1026 30.3 855 25.25 24.5 76.1 18 -1.3 29.7
16:25 1026 30.3 855 25.25 24.4 75.8 18 -1.2 29.9
16:30 1026 30.3 855 25.25 24.5 76 19 -0.3 31.5
16:35 1026 30.3 855 25.25 24.9 76.8 17 -1.7 28.9
16:40 1026 30.3 855 25.25 24.1 75.4 18 -1.2 29.9
16:45 1026 30.3 855 25.25 23.3 74 21 -0.2 31.6
16:50 1026 30.3 855 25.25 24 75.1 19 -0.6 31
16:55 1026 30.3 855 25.25 24.6 76.3 19 -0.3 31.5
17:00 1026 30.3 855 25.25 24.6 76.4 18 -0.8 30.6
17:05 1026 30.3 855 25.25 25 77 17 -1.5 29.3
17:10 1026 30.3 855 25.25 24.5 76.2 18 -0.9 30.3
17:15 1026 30.3 855 25.25 24.7 76.4 18 -0.6 30.9
17:20 1026 30.3 855 25.25 25 77.1 18 -0.7 30.7
17:25 1026 30.3 855 25.25 25.4 77.7 17 -1.2 29.9
17:30 1026 30.3 855 25.25 25.4 77.7 17 -1 30.1
17:35 1026 30.3 855 25.25 25.3 77.5 18 -0.3 31.4
17:40 1025 30.27 855 25.25 25.4 77.8 18 -0.3 31.4
17:45 1025 30.27 855 25.25 25.2 77.3 18 -0.4 31.3
17:50 1025 30.27 855 25.25 25 77 18 -0.4 31.2
17:55 1025 30.27 855 25.25 25.1 77.1 19 -0 32
18:00 1025 30.27 855 25.25 25 77.1 18 -0.4 31.3
18:05 1025 30.27 855 25.25 25.1 77.2 19 -0.1 31.8
18:10 1025 30.27 855 25.25 24.9 76.7 19 -0.2 31.6
18:15 1025 30.27 854 25.22 24.8 76.6 20 0.5 32.9
18:20 1025 30.27 854 25.22 24.5 76.1 20 0.1 32.2
18:25 1025 30.27 854 25.22 24.7 76.4 19 -0.6 31
18:30 1025 30.27 854 25.22 24.7 76.4 19 -0.3 31.4
18:35 1025 30.27 854 25.22 24.1 75.4 20 -0.3 31.4
18:40 1025 30.27 854 25.22 23.4 74.1 20 -0.7 30.8
18:45 1025 30.27 854 25.22 23 73.5 22 0.3 32.6
18:50 1025 30.27 854 25.22 23.1 73.6 22 0.4 32.7
18:55 1025 30.27 854 25.22 23.2 73.8 21 -0.4 31.3
19:00 1025 30.27 854 25.22 23.1 73.6 20 -0.9 30.4
19:05 1025 30.27 854 25.22 23.1 73.6 19 -1.3 29.7
19:10 1025 30.27 854 25.22 23.2 73.8 20 -0.8 30.6
19:15 1025 30.27 854 25.22 23.2 73.7 19 -1.3 29.6
19:20 1025 30.27 854 25.22 23.2 73.7 20 -0.6 30.9
19:25 1025 30.27 854 25.22 23.1 73.6 20 -1 30.2
19:30 1025 30.27 854 25.22 23 73.5 20 -0.8 30.5
19:35 1025 30.27 854 25.22 22.6 72.7 24 1.5 34.6
19:40 1025 30.27 854 25.22 22.3 72.1 26 1.8 35.3
19:45 1025 30.27 854 25.22 22.1 71.8 25 1.5 34.7
19:50 1025 30.27 854 25.22 22.2 71.9 29 3.4 38.2
19:55 1025 30.27 854 25.22 21.9 71.5 30 3.8 38.8
20:00 1025 30.27 854 25.22 21.6 70.9 31 4.1 39.4
20:05 1025 30.27 854 25.22 21.3 70.3 36 5.6 42.1
20:10 1025 30.27 854 25.22 20.4 68.6 40 6.4 43.6
20:15 1025 30.27 854 25.22 19.7 67.5 40 5.9 42.6
20:20 1025 30.27 854 25.22 19.1 66.4 43 6.3 43.4
20:25 1025 30.27 854 25.22 18.6 65.4 42 5.5 42
20:30 1025 30.27 854 25.22 18 64.4 44 5.7 42.3
20:35 1025 30.27 854 25.22 17.3 63.2 45 5.5 41.9
20:40 1025 30.27 854 25.22 16.9 62.5 48 5.9 42.6
20:45 1025 30.27 854 25.22 16.7 62.1 50 6.3 43.4
20:50 1025 30.27 854 25.22 16.6 61.8 48 5.5 41.9
20:55 1025 30.27 854 25.22 16.3 61.3 48 5.4 41.7
21:00 1025 30.27 854 25.22 16.1 61 46 4.6 40.3
21:05 1025 30.27 854 25.22 16.1 60.9 45 4.3 39.7
21:10 1025 30.27 854 25.22 15.9 60.6 43 3.3 38
21:15 1025 30.27 855 25.25 15.9 60.7 42 3.2 37.8
21:20 1025 30.27 855 25.25 15.9 60.6 39 2.1 35.8
21:25 1025 30.27 855 25.25 16.2 61.1 38 2.1 35.7
21:30 1025 30.27 855 25.25 15.9 60.6 40 2.5 36.6
21:35 1025 30.27 855 25.25 15.5 60 41 2.5 36.5
21:40 1025 30.27 855 25.25 15.3 59.5 44 3.3 38
21:45 1025 30.27 855 25.25 14.8 58.7 45 3.2 37.8
21:50 1025 30.27 855 25.25 14.7 58.4 44 2.5 36.5
21:55 1025 30.27 855 25.25 14.9 58.8 45 3.2 37.8
22:00 1025 30.27 855 25.25 14.8 58.7 45 2.9 37.3
22:05 1025 30.27 855 25.25 14.6 58.3 45 2.9 37.2
22:10 1025 30.27 855 25.25 14.6 58.3 46 3.2 37.8
22:15 1025 30.27 855 25.25 14.8 58.6 44 2.8 37
22:20 1025 30.27 855 25.25 14.9 58.8 44 2.8 37
22:25 1025 30.27 855 25.25 14.7 58.4 45 2.9 37.2
22:30 1025 30.27 855 25.25 14.5 58.1 45 2.9 37.3
22:35 1025 30.27 855 25.25 14.6 58.2 45 2.9 37.3
22:40 1025 30.27 855 25.25 14.5 58.1 42 2 35.6
22:45 1025 30.27 855 25.25 15.1 59.2 40 1.7 35.1
22:50 1025 30.27 855 25.25 15.3 59.6 39 1.4 34.6
22:55 1025 30.27 855 25.25 15.7 60.2 37 1.2 34.1
23:00 1025 30.27 855 25.25 15.7 60.2 38 1.6 34.9
23:05 1025 30.27 855 25.25 15.6 60.1 39 1.6 35
23:10 1025 30.27 854 25.22 15.4 59.7 41 2.2 36
23:15 1025 30.27 854 25.22 15.4 59.8 37 1.1 33.9
23:20 1025 30.27 854 25.22 15.8 60.5 36 1 33.9
23:25 1025 30.27 854 25.22 15.7 60.2 37 1.2 34.2
23:30 1025 30.27 854 25.22 15.5 60 39 1.7 35
23:35 1025 30.27 854 25.22 15.1 59.2 41 2.1 35.8
23:40 1025 30.27 854 25.22 14.8 58.7 42 2.1 35.7
23:45 1025 30.27 854 25.22 14.5 58.2 43 2.3 36.1
23:50 1025 30.27 854 25.22 14.1 57.3 44 2.2 36
23:55 1025 30.27 854 25.22 14 57.3 43 1.7 35.1
24:00 1025 30.27 854 25.22 14.2 57.6 43 2 35.6